Time;durP1;ratioP1;P1;durP2;ratioP2;P2;SDS_P1;SDS_P2;PMS_P1;PMS_P2;Temp;Humidity;BMP_temperature;BMP_pressure;BME280_temperature;BME280_humidity;BME280_pressure;Samples;Min_cycle;Max_cycle;Signal;HPM_P1;HPM_P2
2023/05/31 00:02:16;;;;;;;3.53;1.50;;;14.80;71.70;;;;;;4948940;28;20570;-63
2023/05/31 00:04:41;;;;;;;4.70;1.57;;;14.80;72.00;;;;;;4946581;28;20292;-64
2023/05/31 00:07:07;;;;;;;2.27;1.67;;;14.80;72.20;;;;;;4948936;28;20218;-63
2023/05/31 00:09:33;;;;;;;2.07;1.80;;;14.80;72.50;;;;;;4949154;28;20202;-63
2023/05/31 00:11:59;;;;;;;3.80;1.50;;;14.80;72.70;;;;;;4945966;28;20309;-63
2023/05/31 00:14:25;;;;;;;2.93;1.60;;;14.70;73.10;;;;;;4947627;28;20202;-63
2023/05/31 00:16:51;;;;;;;2.17;1.63;;;14.60;73.40;;;;;;4947379;28;20217;-63
2023/05/31 00:19:17;;;;;;;1.87;1.77;;;14.50;73.80;;;;;;4948332;28;20209;-63
2023/05/31 00:21:46;;;;;;;2.10;1.70;;;14.50;74.00;;;;;;4946652;28;20232;-63
2023/05/31 00:24:12;;;;;;;2.73;1.53;;;14.50;74.40;;;;;;4947691;28;20236;-63
2023/05/31 00:26:38;;;;;;;3.20;1.70;;;14.50;74.70;;;;;;4948170;28;20220;-65
2023/05/31 00:29:04;;;;;;;2.03;1.70;;;14.40;75.40;;;;;;4951307;28;20321;-63
2023/05/31 00:31:30;;;;;;;4.23;1.80;;;14.50;75.00;;;;;;4945063;28;20205;-64
2023/05/31 00:33:56;;;;;;;3.97;2.20;;;14.40;75.20;;;;;;4946603;28;20210;-66
2023/05/31 00:36:22;;;;;;;3.53;2.10;;;14.40;75.90;;;;;;4957833;28;20221;-63
2023/05/31 00:38:48;;;;;;;3.23;1.63;;;14.40;76.20;;;;;;4952975;28;20232;-63
2023/05/31 00:41:13;;;;;;;3.70;2.00;;;14.30;77.00;;;;;;4957436;28;20221;-63
2023/05/31 00:43:39;;;;;;;5.67;2.27;;;14.20;77.20;;;;;;4959109;28;20210;-63
2023/05/31 00:46:04;;;;;;;2.53;2.07;;;14.20;77.70;;;;;;4961137;28;20197;-63
2023/05/31 00:48:30;;;;;;;4.17;2.00;;;14.20;78.00;;;;;;4955980;28;20272;-63
2023/05/31 00:50:56;;;;;;;2.07;1.70;;;14.20;78.30;;;;;;4957744;28;20854;-63
2023/05/31 00:53:22;;;;;;;3.13;1.83;;;14.20;78.70;;;;;;4962338;28;20228;-63
2023/05/31 00:55:48;;;;;;;2.43;1.37;;;14.20;78.80;;;;;;4961757;28;20695;-63
2023/05/31 00:58:15;;;;;;;3.20;2.07;;;14.10;79.30;;;;;;4962117;28;20205;-61
2023/05/31 01:00:41;;;;;;;2.80;1.73;;;14.00;80.00;;;;;;4952167;28;20280;-62
2023/05/31 01:03:08;;;;;;;1.50;1.40;;;13.90;80.60;;;;;;4955661;28;20288;-62
2023/05/31 01:05:35;;;;;;;2.97;1.80;;;13.90;81.40;;;;;;4958927;28;20765;-62
2023/05/31 01:08:01;;;;;;;3.90;1.90;;;13.90;82.10;;;;;;4961543;28;20216;-62
2023/05/31 01:10:28;;;;;;;1.73;1.50;;;13.70;82.40;;;;;;4961807;28;20213;-62
2023/05/31 01:13:30;;;;;;;1.83;1.30;;;13.50;83.60;;;;;;4954001;28;20647;-63
2023/05/31 01:16:02;;;;;;;3.70;2.10;;;13.50;84.40;;;;;;4950410;28;20836;-61
2023/05/31 01:18:41;;;;;;;5.33;2.37;;;13.40;85.40;;;;;;4956729;28;20696;-62
2023/05/31 01:21:07;;;;;;;2.43;1.80;;;13.50;86.00;;;;;;4961299;28;20209;-61
2023/05/31 01:24:18;;;;;;;1.77;1.67;;;13.40;86.90;;;;;;4961141;28;20340;-62
2023/05/31 01:26:46;;;;;;;2.93;1.70;;;13.50;87.10;;;;;;4959507;28;20682;-62
2023/05/31 01:29:17;;;;;;;3.53;1.87;;;13.40;87.50;;;;;;4960715;28;20253;-62
2023/05/31 01:31:45;;;;;;;3.90;1.93;;;13.50;87.60;;;;;;4961388;28;20284;-62
2023/05/31 01:34:11;;;;;;;4.50;1.90;;;13.50;87.30;;;;;;4955546;28;20225;-62
2023/05/31 01:36:37;;;;;;;2.70;2.10;;;13.50;87.50;;;;;;4961272;28;20228;-62
2023/05/31 01:39:03;;;;;;;2.73;1.63;;;13.50;87.20;;;;;;4961606;28;20206;-63
2023/05/31 01:41:31;;;;;;;1.63;1.50;;;13.30;87.80;;;;;;4949138;28;20281;-63
2023/05/31 01:43:57;;;;;;;4.03;1.80;;;13.40;88.50;;;;;;4950939;28;20205;-63
2023/05/31 01:46:24;;;;;;;2.30;1.87;;;13.30;89.20;;;;;;4949452;28;20210;-63
2023/05/31 01:48:50;;;;;;;2.43;2.07;;;13.30;89.30;;;;;;4951852;28;20291;-63
2023/05/31 01:51:16;;;;;;;3.17;1.70;;;13.10;90.10;;;;;;4951300;28;20206;-63
2023/05/31 01:53:43;;;;;;;3.50;2.03;;;13.10;90.50;;;;;;4951688;28;20215;-64
2023/05/31 01:56:09;;;;;;;2.80;1.50;;;13.10;90.70;;;;;;4951633;28;20205;-62
2023/05/31 01:58:44;;;;;;;1.60;1.17;;;12.90;91.30;;;;;;4949209;28;20277;-64
2023/05/31 02:01:11;;;;;;;2.60;1.10;;;12.90;91.50;;;;;;4950946;28;20281;-63
2023/05/31 02:03:38;;;;;;;2.57;1.77;;;12.80;91.90;;;;;;4950927;28;20230;-63
2023/05/31 02:06:04;;;;;;;2.80;2.00;;;12.80;92.00;;;;;;4950515;28;20630;-63
2023/05/31 02:08:29;;;;;;;2.13;1.97;;;12.80;92.30;;;;;;4958727;28;20218;-67
2023/05/31 02:10:55;;;;;;;3.40;2.00;;;12.90;92.40;;;;;;4960618;28;20200;-62
2023/05/31 02:13:25;;;;;;;6.97;2.90;;;12.90;92.60;;;;;;4960482;28;20611;-68
2023/05/31 02:15:51;;;;;;;4.47;2.40;;;12.90;92.70;;;;;;4960188;28;20198;-62
2023/05/31 02:18:17;;;;;;;2.83;1.40;;;12.90;92.80;;;;;;4960419;28;20206;-63
2023/05/31 02:20:43;;;;;;;2.53;1.93;;;12.70;93.20;;;;;;4956907;28;20668;-63
2023/05/31 02:23:09;;;;;;;4.40;1.97;;;12.70;93.40;;;;;;4950945;28;20320;-62
2023/05/31 02:25:34;;;;;;;6.13;1.97;;;12.70;93.70;;;;;;4950361;28;20645;-62
2023/05/31 02:28:00;;;;;;;3.93;2.30;;;12.50;94.30;;;;;;4950218;28;20316;-62
2023/05/31 02:30:30;;;;;;;4.43;1.90;;;12.50;94.60;;;;;;4950396;28;20804;-63
2023/05/31 02:32:56;;;;;;;2.60;1.83;;;12.60;94.60;;;;;;4941489;28;20252;-62
2023/05/31 02:35:22;;;;;;;5.00;1.87;;;12.50;94.80;;;;;;4953531;28;20206;-62
2023/05/31 02:37:47;;;;;;;1.80;1.53;;;12.40;95.20;;;;;;4959643;28;20209;-62
2023/05/31 02:40:13;;;;;;;3.90;1.97;;;12.40;95.50;;;;;;4954929;28;20537;-62
2023/05/31 02:42:40;;;;;;;2.07;1.87;;;12.50;95.30;;;;;;4955386;28;20297;-62
2023/05/31 02:45:10;;;;;;;2.63;1.70;;;12.50;95.20;;;;;;4954558;28;20707;-62
2023/05/31 02:47:38;;;;;;;3.37;2.10;;;12.50;95.40;;;;;;4959387;28;20222;-63
2023/05/31 02:50:05;;;;;;;3.90;2.53;;;12.50;95.70;;;;;;4938432;28;20781;-63
2023/05/31 02:52:31;;;;;;;6.63;2.03;;;12.40;96.10;;;;;;4954293;28;20208;-64
2023/05/31 02:54:56;;;;;;;3.93;2.53;;;12.40;96.40;;;;;;4954442;28;20205;-63
2023/05/31 02:57:22;;;;;;;2.67;1.90;;;12.30;96.60;;;;;;4957957;28;20193;-62
2023/05/31 02:59:50;;;;;;;2.93;2.57;;;12.30;96.90;;;;;;4956515;28;20670;-64
2023/05/31 03:02:15;;;;;;;6.57;2.30;;;12.20;97.40;;;;;;4959236;28;20285;-63
2023/05/31 03:04:44;;;;;;;5.30;2.63;;;12.20;97.60;;;;;;4953495;28;20277;-64
2023/05/31 03:07:10;;;;;;;10.00;3.63;;;12.20;97.80;;;;;;4936387;28;20568;-64
2023/05/31 03:09:35;;;;;;;8.00;2.30;;;12.30;97.70;;;;;;4959494;28;20213;-64
2023/05/31 03:12:01;;;;;;;5.67;2.20;;;12.30;97.90;;;;;;4959446;28;20228;-64
2023/05/31 03:14:27;;;;;;;10.23;2.43;;;12.30;97.70;;;;;;4957105;28;20209;-64
2023/05/31 03:16:52;;;;;;;8.73;2.77;;;12.20;97.80;;;;;;4959021;28;20232;-63
2023/05/31 03:19:18;;;;;;;4.73;2.47;;;12.10;98.20;;;;;;4959588;28;20205;-62
2023/05/31 03:21:44;;;;;;;3.37;1.97;;;12.20;97.70;;;;;;4959239;28;20715;-63
2023/05/31 03:24:09;;;;;;;4.57;2.80;;;12.30;97.40;;;;;;4959171;28;20256;-62
2023/05/31 03:26:35;;;;;;;3.83;2.30;;;12.20;97.30;;;;;;4959244;28;20595;-63
2023/05/31 03:29:01;;;;;;;3.73;2.30;;;12.10;97.60;;;;;;4957065;28;20571;-63
2023/05/31 03:31:28;;;;;;;5.03;2.30;;;12.00;98.20;;;;;;4959011;28;20196;-62
2023/05/31 03:33:54;;;;;;;3.03;1.97;;;11.80;98.50;;;;;;4957720;28;20281;-62
2023/05/31 03:36:20;;;;;;;2.93;2.20;;;11.80;98.80;;;;;;4954768;28;20288;-61
2023/05/31 03:38:45;;;;;;;2.27;1.90;;;11.90;98.40;;;;;;4954001;28;20292;-61
2023/05/31 03:41:11;;;;;;;2.87;2.33;;;11.80;99.00;;;;;;4955654;28;20370;-62
2023/05/31 03:43:36;;;;;;;4.67;2.00;;;11.70;99.00;;;;;;4953538;28;20233;-63
2023/05/31 03:46:02;;;;;;;6.70;2.30;;;11.80;99.10;;;;;;4958811;28;20312;-62
2023/05/31 03:48:28;;;;;;;3.33;2.23;;;11.90;98.70;;;;;;4958808;28;20209;-62
2023/05/31 03:50:54;;;;;;;4.47;2.50;;;11.80;99.00;;;;;;4958421;28;20654;-62
2023/05/31 03:53:19;;;;;;;3.27;1.97;;;11.70;99.20;;;;;;4954454;28;20252;-63
2023/05/31 03:55:45;;;;;;;5.03;2.53;;;11.80;99.20;;;;;;4956339;28;20409;-62
2023/05/31 03:58:10;;;;;;;2.47;2.27;;;11.80;99.40;;;;;;4954625;28;20831;-63
2023/05/31 04:00:36;;;;;;;3.13;2.20;;;11.70;99.50;;;;;;4958719;28;20232;-63
2023/05/31 04:03:02;;;;;;;3.90;2.27;;;11.70;99.70;;;;;;4958469;28;20662;-63
2023/05/31 04:05:27;;;;;;;3.53;2.03;;;11.80;99.90;;;;;;4956684;28;20263;-63
2023/05/31 04:07:53;;;;;;;5.03;2.67;;;11.80;99.90;;;;;;4958375;28;20700;-63
2023/05/31 04:10:18;;;;;;;5.00;2.50;;;11.80;99.90;;;;;;4958279;28;20205;-63
2023/05/31 04:12:44;;;;;;;2.47;2.17;;;11.90;99.90;;;;;;4951327;28;20211;-66
2023/05/31 04:15:10;;;;;;;2.70;2.50;;;11.90;99.90;;;;;;4941773;28;20197;-63
2023/05/31 04:17:35;;;;;;;4.63;2.23;;;11.90;99.90;;;;;;4948563;28;20223;-63
2023/05/31 04:20:01;;;;;;;2.43;2.00;;;12.00;99.90;;;;;;4947898;28;20217;-64
2023/05/31 04:22:26;;;;;;;3.93;2.30;;;11.90;99.80;;;;;;4947926;28;20248;-63
2023/05/31 04:24:52;;;;;;;4.17;2.60;;;12.10;99.30;;;;;;4950052;28;20212;-63
2023/05/31 04:27:18;;;;;;;3.53;2.30;;;12.20;99.00;;;;;;4947750;28;20607;-63
2023/05/31 04:29:47;;;;;;;4.23;1.87;;;12.10;99.40;;;;;;4950872;28;20198;-63
2023/05/31 04:32:15;;;;;;;4.07;2.80;;;12.00;99.70;;;;;;4946166;28;20475;-62
2023/05/31 04:34:41;;;;;;;3.87;2.13;;;12.10;99.30;;;;;;4948951;28;20206;-64
2023/05/31 04:37:07;;;;;;;3.67;2.40;;;12.10;99.70;;;;;;4948824;28;20236;-64
2023/05/31 04:39:33;;;;;;;4.63;2.43;;;12.00;99.70;;;;;;4949543;28;20206;-63
2023/05/31 04:41:59;;;;;;;4.73;2.40;;;12.10;99.80;;;;;;4947920;28;20205;-63
2023/05/31 04:44:26;;;;;;;3.97;2.80;;;12.00;99.90;;;;;;4946521;28;20754;-64
2023/05/31 04:46:51;;;;;;;3.20;2.53;;;12.00;99.90;;;;;;4948103;28;20710;-63
2023/05/31 04:49:18;;;;;;;5.87;3.30;;;12.00;99.80;;;;;;4948439;28;20217;-63
2023/05/31 04:51:44;;;;;;;2.73;2.20;;;12.10;99.90;;;;;;4950969;28;20321;-63
2023/05/31 04:54:09;;;;;;;5.60;2.67;;;12.20;99.40;;;;;;4948445;28;20285;-63
2023/05/31 04:56:35;;;;;;;5.53;2.57;;;12.30;99.00;;;;;;4943320;28;20219;-63
2023/05/31 04:59:00;;;;;;;3.27;2.37;;;12.30;99.00;;;;;;4943610;28;20557;-63
2023/05/31 05:01:26;;;;;;;4.07;2.43;;;12.30;99.00;;;;;;4944379;28;20727;-63
2023/05/31 05:03:52;;;;;;;3.93;2.20;;;12.50;98.80;;;;;;4948572;28;20209;-63
2023/05/31 05:06:18;;;;;;;3.03;1.93;;;12.50;98.90;;;;;;4953278;28;20217;-63
2023/05/31 05:08:44;;;;;;;4.20;2.40;;;12.50;98.80;;;;;;4957885;28;20222;-63
2023/05/31 05:11:10;;;;;;;3.87;2.30;;;12.50;98.60;;;;;;4955791;28;20205;-63
2023/05/31 05:13:36;;;;;;;4.90;2.20;;;12.50;98.90;;;;;;4953218;28;20267;-63
2023/05/31 05:16:04;;;;;;;4.40;2.53;;;12.60;99.20;;;;;;4953163;28;20206;-63
2023/05/31 05:18:31;;;;;;;4.10;2.20;;;12.60;99.20;;;;;;4958017;28;20557;-63
2023/05/31 05:20:57;;;;;;;5.47;2.80;;;12.70;99.20;;;;;;4957866;28;20205;-63
2023/05/31 05:23:24;;;;;;;4.07;2.37;;;12.90;98.40;;;;;;4955589;28;20260;-64
2023/05/31 05:25:50;;;;;;;4.27;2.40;;;12.80;98.30;;;;;;4956561;28;20205;-63
2023/05/31 05:28:15;;;;;;;6.40;2.50;;;12.90;98.10;;;;;;4955309;28;20236;-63
2023/05/31 05:30:41;;;;;;;4.10;2.57;;;13.00;98.00;;;;;;4959201;28;20197;-65
2023/05/31 05:33:06;;;;;;;7.23;2.33;;;13.00;98.00;;;;;;4956163;28;20676;-63
2023/05/31 05:35:33;;;;;;;3.67;2.37;;;13.20;97.80;;;;;;4941733;28;20677;-63
2023/05/31 05:37:59;;;;;;;4.53;2.30;;;13.20;97.70;;;;;;4961271;28;20316;-62
2023/05/31 05:40:25;;;;;;;8.07;2.87;;;13.20;97.60;;;;;;4961108;28;20676;-63
2023/05/31 05:42:50;;;;;;;4.53;2.50;;;13.30;97.60;;;;;;4960664;28;20217;-63
2023/05/31 05:45:16;;;;;;;4.57;2.60;;;13.30;97.50;;;;;;4961259;28;20221;-64
2023/05/31 05:47:44;;;;;;;3.87;2.53;;;13.40;97.30;;;;;;4958850;28;21011;-67
2023/05/31 05:50:11;;;;;;;4.20;2.83;;;13.40;97.30;;;;;;4957204;28;20201;-63
2023/05/31 05:52:37;;;;;;;6.17;2.80;;;13.60;97.40;;;;;;4960646;28;20201;-62
2023/05/31 05:55:03;;;;;;;5.50;2.67;;;13.70;97.10;;;;;;4960752;28;20689;-62
2023/05/31 05:57:29;;;;;;;4.23;2.40;;;13.80;96.80;;;;;;4960772;28;20202;-63
2023/05/31 05:59:56;;;;;;;5.10;2.63;;;13.90;96.90;;;;;;4959222;28;20193;-63
2023/05/31 06:02:22;;;;;;;3.67;2.53;;;14.00;97.00;;;;;;4960305;28;20204;-63
2023/05/31 06:04:48;;;;;;;3.47;2.70;;;14.10;96.30;;;;;;4955975;28;20206;-62
2023/05/31 06:07:14;;;;;;;7.17;3.60;;;14.20;96.10;;;;;;4960675;28;20295;-63
2023/05/31 06:09:39;;;;;;;6.63;3.10;;;14.20;96.10;;;;;;4960739;28;20221;-63
2023/05/31 06:12:06;;;;;;;7.80;3.40;;;14.30;96.10;;;;;;4960147;28;20767;-63
2023/05/31 06:14:32;;;;;;;5.53;3.53;;;14.40;96.50;;;;;;4959902;28;20601;-62
2023/05/31 06:16:57;;;;;;;10.07;4.27;;;14.40;95.90;;;;;;4960576;28;20201;-63
2023/05/31 06:19:23;;;;;;;3.90;2.83;;;14.50;95.80;;;;;;4951427;28;20343;-62
2023/05/31 06:21:49;;;;;;;4.23;2.50;;;14.60;95.60;;;;;;4950981;28;20738;-63
2023/05/31 06:24:15;;;;;;;7.67;3.50;;;14.80;95.10;;;;;;4950748;28;20236;-63
2023/05/31 06:26:41;;;;;;;6.67;3.23;;;14.90;95.30;;;;;;4945982;28;20197;-63
2023/05/31 06:29:07;;;;;;;6.07;3.53;;;14.80;94.90;;;;;;4950247;28;20212;-63
2023/05/31 06:31:33;;;;;;;8.63;3.13;;;14.90;94.80;;;;;;4950682;28;20272;-64
2023/05/31 06:33:59;;;;;;;5.67;2.40;;;15.10;94.70;;;;;;4942744;28;20684;-63
2023/05/31 06:36:24;;;;;;;5.63;2.73;;;15.20;94.40;;;;;;4941535;28;20194;-63
2023/05/31 06:38:50;;;;;;;6.47;2.77;;;15.20;94.50;;;;;;4940027;28;20202;-64
2023/05/31 06:41:15;;;;;;;5.07;2.83;;;15.20;94.60;;;;;;4942082;28;20206;-63
2023/05/31 06:43:41;;;;;;;4.63;2.43;;;15.40;94.40;;;;;;4944830;28;20278;-65
2023/05/31 06:46:09;;;;;;;5.33;2.43;;;15.50;94.20;;;;;;4941108;28;20206;-64
2023/05/31 06:48:34;;;;;;;5.87;2.27;;;15.60;93.90;;;;;;4945812;28;20217;-64
2023/05/31 06:51:00;;;;;;;5.03;2.33;;;15.60;93.80;;;;;;4944791;28;20208;-67
2023/05/31 06:53:25;;;;;;;5.70;2.47;;;15.60;93.50;;;;;;4944195;28;20611;-67
2023/05/31 06:55:51;;;;;;;3.57;2.30;;;15.70;93.50;;;;;;4943850;28;20218;-64
2023/05/31 06:58:16;;;;;;;8.07;2.47;;;15.70;93.10;;;;;;4944818;28;20205;-66
2023/05/31 07:00:42;;;;;;;4.20;2.43;;;15.90;93.10;;;;;;4944905;28;20390;-67
2023/05/31 07:03:08;;;;;;;3.83;2.60;;;16.20;92.70;;;;;;4943031;28;20678;-75
2023/05/31 07:05:34;;;;;;;5.30;2.00;;;16.10;92.90;;;;;;4942484;28;20309;-73
2023/05/31 07:08:00;;;;;;;7.40;2.93;;;16.20;92.70;;;;;;4942919;28;20214;-74
2023/05/31 07:10:27;;;;;;;4.50;2.13;;;16.30;92.10;;;;;;4948293;28;20523;-78
2023/05/31 07:12:53;;;;;;;6.40;2.20;;;16.50;91.70;;;;;;4945105;28;20218;-76
2023/05/31 07:15:19;;;;;;;6.07;2.77;;;16.70;91.70;;;;;;4945149;28;20211;-69
2023/05/31 07:17:45;;;;;;;10.60;2.33;;;16.70;91.80;;;;;;4923109;28;20210;-69
2023/05/31 07:20:11;;;;;;;6.73;2.83;;;16.70;91.80;;;;;;4945347;28;20212;-70
2023/05/31 07:22:37;;;;;;;4.50;2.43;;;16.70;91.80;;;;;;4944010;28;20231;-70
2023/05/31 07:25:03;;;;;;;2.87;2.33;;;16.90;91.30;;;;;;4949300;28;20242;-71
2023/05/31 07:27:29;;;;;;;8.00;2.53;;;17.10;90.80;;;;;;4949050;28;20238;-70
2023/05/31 07:29:55;;;;;;;6.63;2.57;;;17.20;89.90;;;;;;4949354;28;20988;-71
2023/05/31 07:32:21;;;;;;;3.73;2.27;;;17.20;89.80;;;;;;4949184;28;20207;-71
2023/05/31 07:34:47;;;;;;;3.10;1.97;;;17.20;89.10;;;;;;4949122;28;20685;-71
2023/05/31 07:37:12;;;;;;;2.20;1.60;;;17.20;88.00;;;;;;4949189;28;20201;-72
2023/05/31 07:39:38;;;;;;;5.10;2.47;;;17.20;88.50;;;;;;4949365;28;20677;-70
2023/05/31 07:42:04;;;;;;;5.43;2.60;;;17.50;86.40;;;;;;4949083;28;20840;-71
2023/05/31 07:44:30;;;;;;;7.30;2.30;;;17.50;87.70;;;;;;4951933;28;20226;-72
2023/05/31 07:46:55;;;;;;;5.17;2.40;;;17.50;86.80;;;;;;4947694;28;20288;-71
2023/05/31 07:49:21;;;;;;;3.80;2.33;;;17.70;86.40;;;;;;4947293;28;20863;-71
2023/05/31 07:51:46;;;;;;;5.10;1.97;;;17.90;86.60;;;;;;4948139;28;20616;-71
2023/05/31 07:54:12;;;;;;;5.70;1.97;;;17.90;85.90;;;;;;4948222;28;20208;-72
2023/05/31 07:56:37;;;;;;;3.57;1.90;;;17.90;85.40;;;;;;4951194;28;20230;-71
2023/05/31 07:59:03;;;;;;;5.27;2.93;;;17.90;86.10;;;;;;4942257;28;20246;-71
2023/05/31 08:01:28;;;;;;;3.70;2.10;;;18.00;85.00;;;;;;4948997;28;20236;-71
2023/05/31 08:03:54;;;;;;;4.53;2.33;;;18.20;82.20;;;;;;4949015;28;20241;-73
2023/05/31 08:06:20;;;;;;;4.50;2.67;;;18.20;84.10;;;;;;4947508;28;20710;-74
2023/05/31 08:08:45;;;;;;;7.30;2.90;;;18.40;84.20;;;;;;4948777;28;20228;-75
2023/05/31 08:11:11;;;;;;;4.07;2.03;;;18.50;82.80;;;;;;4949205;28;20205;-71
2023/05/31 08:13:38;;;;;;;8.40;2.30;;;18.50;81.40;;;;;;4946670;28;20919;-72
2023/05/31 08:16:04;;;;;;;4.13;2.10;;;18.50;81.70;;;;;;4948024;28;20200;-71
2023/05/31 08:18:29;;;;;;;4.43;2.70;;;18.60;79.60;;;;;;4948255;28;20213;-73
2023/05/31 08:20:55;;;;;;;6.03;2.63;;;18.70;78.30;;;;;;4947959;28;20239;-71
2023/05/31 08:23:21;;;;;;;2.80;1.93;;;18.80;77.00;;;;;;4946527;28;20702;-71
2023/05/31 08:25:47;;;;;;;4.60;2.03;;;18.90;77.60;;;;;;4939636;28;20220;-74
2023/05/31 08:28:13;;;;;;;4.67;1.70;;;18.90;77.20;;;;;;4948747;28;20220;-73
2023/05/31 08:30:38;;;;;;;3.73;1.87;;;18.90;76.60;;;;;;4948807;28;20248;-73
2023/05/31 08:33:04;;;;;;;4.83;2.10;;;18.90;74.40;;;;;;4946395;28;20202;-72
2023/05/31 08:35:30;;;;;;;3.93;1.80;;;18.90;72.90;;;;;;4944629;28;20203;-72
2023/05/31 08:37:55;;;;;;;3.03;1.67;;;19.00;73.40;;;;;;4942070;28;20208;-72
2023/05/31 08:40:22;;;;;;;3.97;1.93;;;19.10;73.30;;;;;;4944517;28;20616;-72
2023/05/31 08:42:55;;;;;;;4.80;2.60;;;19.10;71.00;;;;;;4943815;28;20212;-72
2023/05/31 08:45:21;;;;;;;4.40;1.70;;;19.30;70.80;;;;;;4943252;28;20292;-72
2023/05/31 08:48:02;;;;;;;4.87;1.90;;;19.50;69.30;;;;;;4954824;28;20259;-72
2023/05/31 08:50:29;;;;;;;2.63;1.80;;;19.60;70.10;;;;;;4957661;28;20196;-72
2023/05/31 08:52:56;;;;;;;6.03;1.73;;;19.70;69.80;;;;;;4958018;28;20619;-71
2023/05/31 08:55:23;;;;;;;1.50;1.40;;;19.70;68.50;;;;;;4955749;28;20267;-72
2023/05/31 08:57:51;;;;;;;4.13;1.20;;;19.70;64.30;;;;;;4953855;28;20214;-72
2023/05/31 09:00:18;;;;;;;3.87;1.60;;;19.70;66.10;;;;;;4957647;28;20221;-72
2023/05/31 09:02:44;;;;;;;2.00;1.60;;;19.80;64.50;;;;;;4961175;28;20241;-71
2023/05/31 09:05:10;;;;;;;4.67;1.83;;;20.00;64.40;;;;;;4962271;28;20219;-72
2023/05/31 09:07:37;;;;;;;4.00;1.50;;;20.30;65.70;;;;;;4961284;28;20232;-73
2023/05/31 09:10:05;;;;;;;3.53;1.93;;;20.30;63.60;;;;;;4961478;28;20211;-71
2023/05/31 09:12:31;;;;;;;3.37;1.77;;;20.40;64.70;;;;;;4961236;28;20741;-72
2023/05/31 09:14:57;;;;;;;2.43;1.40;;;20.40;64.90;;;;;;4958020;28;20194;-73
2023/05/31 09:17:22;;;;;;;4.07;1.80;;;20.50;62.60;;;;;;4956744;28;20198;-73
2023/05/31 09:19:53;;;;;;;2.33;1.50;;;20.50;62.00;;;;;;4950927;28;20209;-72
2023/05/31 09:22:21;;;;;;;4.40;1.73;;;20.60;61.60;;;;;;4943459;28;20994;-72
2023/05/31 09:24:57;;;;;;;2.37;1.30;;;20.60;58.70;;;;;;4958595;28;20619;-72
2023/05/31 09:27:23;;;;;;;3.60;1.93;;;20.60;57.60;;;;;;4958898;28;20212;-73
2023/05/31 09:29:56;;;;;;;1.50;1.40;;;20.60;57.20;;;;;;4958442;28;20245;-71
2023/05/31 09:32:21;;;;;;;1.60;1.43;;;20.60;56.90;;;;;;4955825;28;20205;-73
2023/05/31 09:34:47;;;;;;;3.70;1.63;;;20.50;59.20;;;;;;4945690;28;20203;-71
2023/05/31 09:37:24;;;;;;;2.17;1.40;;;20.70;59.50;;;;;;4953376;28;20201;-71
2023/05/31 09:39:57;;;;;;;2.70;1.67;;;20.90;57.50;;;;;;4960543;28;21045;-72
2023/05/31 09:42:26;;;;;;;4.90;1.60;;;20.80;59.30;;;;;;4953511;28;20693;-71
2023/05/31 09:44:52;;;;;;;4.93;1.67;;;20.80;59.00;;;;;;4960549;28;20757;-71
2023/05/31 09:47:24;;;;;;;4.63;1.53;;;20.80;59.30;;;;;;4943433;28;20212;-71
2023/05/31 09:49:49;;;;;;;2.40;1.70;;;20.90;57.80;;;;;;4961024;28;20293;-71
2023/05/31 09:52:15;;;;;;;6.17;1.60;;;20.90;59.50;;;;;;4960922;28;20209;-70
2023/05/31 09:54:41;;;;;;;2.80;1.43;;;21.00;60.90;;;;;;4961382;28;20201;-71
2023/05/31 09:57:11;;;;;;;2.40;1.90;;;21.00;59.60;;;;;;4960661;28;20206;-71
2023/05/31 09:59:40;;;;;;;5.47;1.70;;;21.10;58.00;;;;;;4959062;28;20280;-71
2023/05/31 10:02:07;;;;;;;4.80;2.43;;;21.30;57.60;;;;;;4960450;28;20224;-71
2023/05/31 10:04:35;;;;;;;2.77;2.03;;;21.30;58.20;;;;;;4960976;28;20210;-71
2023/05/31 10:07:02;;;;;;;4.43;2.03;;;21.30;56.70;;;;;;4960848;28;20201;-71
2023/05/31 10:09:27;;;;;;;2.30;2.00;;;21.30;58.30;;;;;;4938499;29;20691;-71
2023/05/31 10:11:56;;;;;;;2.53;1.60;;;21.20;57.50;;;;;;4953068;28;20212;-71
2023/05/31 10:14:25;;;;;;;3.77;1.70;;;21.30;57.90;;;;;;4960482;28;20198;-71
2023/05/31 10:16:55;;;;;;;5.50;2.53;;;21.50;57.10;;;;;;4955742;28;20201;-72
2023/05/31 10:19:27;;;;;;;6.40;2.47;;;21.60;59.70;;;;;;4942370;28;20636;-73
2023/05/31 10:21:56;;;;;;;4.00;1.87;;;21.50;58.40;;;;;;4942272;28;20340;-73
2023/05/31 10:24:28;;;;;;;2.30;1.47;;;21.50;56.30;;;;;;4960389;28;20260;-71
2023/05/31 10:27:02;;;;;;;2.73;1.40;;;21.50;56.20;;;;;;4958093;28;20306;-72
2023/05/31 10:29:45;;;;;;;7.93;2.00;;;21.60;55.90;;;;;;4960204;28;20220;-71
2023/05/31 10:32:19;;;;;;;1.83;1.30;;;21.70;55.90;;;;;;4958691;28;20201;-71
2023/05/31 10:34:45;;;;;;;4.87;1.97;;;21.90;55.00;;;;;;4953071;28;20216;-71
2023/05/31 10:37:12;;;;;;;9.10;2.20;;;21.90;54.00;;;;;;4950473;28;20202;-71
2023/05/31 10:39:43;;;;;;;4.73;1.67;;;22.00;54.90;;;;;;4957300;28;20213;-72
2023/05/31 10:42:24;;;;;;;1.77;1.37;;;22.30;53.00;;;;;;4947630;28;20210;-72
2023/05/31 10:45:11;;;;;;;3.37;1.63;;;22.40;53.80;;;;;;4948546;28;20208;-71
2023/05/31 10:47:54;;;;;;;3.27;1.60;;;22.50;57.00;;;;;;4946758;28;20550;-74
2023/05/31 10:50:20;;;;;;;1.70;1.43;;;22.60;53.10;;;;;;4945132;28;20202;-71
2023/05/31 10:52:52;;;;;;;2.43;1.20;;;23.00;50.20;;;;;;4950239;28;20263;-71
2023/05/31 10:55:19;;;;;;;2.97;1.50;;;22.90;52.90;;;;;;4948003;28;20254;-71
2023/05/31 10:57:50;;;;;;;3.87;1.30;;;22.80;54.60;;;;;;4950358;28;20194;-71
2023/05/31 11:00:19;;;;;;;1.67;1.42;;;23.00;50.70;;;;;;4954799;28;20289;-70
2023/05/31 11:02:56;;;;;;;3.63;1.47;;;23.20;52.20;;;;;;4945933;28;20670;-71
2023/05/31 11:05:27;;;;;;;3.00;1.10;;;23.30;51.10;;;;;;4944014;28;20294;-71
2023/05/31 11:07:54;;;;;;;1.70;1.15;;;23.40;52.00;;;;;;4950231;28;20221;-71
2023/05/31 11:10:27;;;;;;;1.98;0.82;;;23.50;48.50;;;;;;4949571;28;20201;-71
2023/05/31 11:12:56;;;;;;;1.95;1.25;;;23.70;48.00;;;;;;4953219;28;20193;-73
2023/05/31 11:15:22;;;;;;;1.30;1.08;;;23.70;49.00;;;;;;4945394;28;20237;-71
2023/05/31 11:17:54;;;;;;;2.10;1.00;;;23.80;49.00;;;;;;4956404;28;20185;-69
2023/05/31 11:20:22;;;;;;;1.98;1.20;;;23.80;47.40;;;;;;4959135;28;20260;-69
2023/05/31 11:22:47;;;;;;;1.83;1.02;;;23.80;47.40;;;;;;4936588;28;20726;-70
2023/05/31 11:25:22;;;;;;;0.90;0.90;;;23.70;48.10;;;;;;4948516;28;20194;-72
2023/05/31 11:27:49;;;;;;;0.65;0.65;;;23.80;48.20;;;;;;4948355;28;20193;-69
2023/05/31 11:30:16;;;;;;;1.42;1.25;;;23.80;49.40;;;;;;4950332;28;20732;-71
2023/05/31 11:32:42;;;;;;;1.17;1.02;;;23.90;51.00;;;;;;4948489;28;20206;-71
2023/05/31 11:35:12;;;;;;;1.10;1.00;;;23.80;49.20;;;;;;4949152;28;20214;-71
2023/05/31 11:37:39;;;;;;;3.03;1.10;;;23.70;51.10;;;;;;4949380;28;20298;-75
2023/05/31 11:40:06;;;;;;;1.20;1.10;;;23.90;53.40;;;;;;4959016;28;20200;-85
2023/05/31 11:42:33;;;;;;;2.70;0.82;;;24.30;48.80;;;;;;4953991;28;20220;-82
2023/05/31 11:45:09;;;;;;;1.13;0.60;;;24.60;49.00;;;;;;4951283;28;20217;-82
2023/05/31 11:47:44;;;;;;;0.73;0.73;;;24.70;47.10;;;;;;4947664;28;20661;-82
2023/05/31 11:50:16;;;;;;;0.82;0.80;;;25.00;47.70;;;;;;4949749;28;20199;-82
2023/05/31 11:52:42;;;;;;;1.35;1.00;;;25.20;46.90;;;;;;4948461;28;20543;-82
2023/05/31 11:55:09;;;;;;;1.23;1.10;;;25.50;47.30;;;;;;4941595;28;20197;-81
2023/05/31 11:57:46;;;;;;;1.45;1.17;;;25.30;45.20;;;;;;4953424;28;20209;-82
2023/05/31 12:00:14;;;;;;;1.35;0.85;;;25.40;45.10;;;;;;4950266;28;20659;-82
2023/05/31 12:02:41;;;;;;;4.43;1.13;;;25.30;45.00;;;;;;4932380;28;20201;-83
2023/05/31 12:05:12;;;;;;;0.70;0.70;;;25.00;44.60;;;;;;4954205;28;20728;-82
2023/05/31 12:07:37;;;;;;;1.30;1.10;;;25.10;45.10;;;;;;4949513;28;20680;-81
2023/05/31 12:10:05;;;;;;;1.55;1.10;;;25.10;44.40;;;;;;4931385;29;20235;-81
2023/05/31 12:12:32;;;;;;;0.75;0.75;;;25.40;44.60;;;;;;4952874;28;20695;-81
2023/05/31 12:14:57;;;;;;;1.05;0.85;;;25.50;44.20;;;;;;4946769;28;20204;-82
2023/05/31 12:17:22;;;;;;;1.30;1.10;;;25.80;44.80;;;;;;4950031;28;20282;-80
2023/05/31 12:19:48;;;;;;;0.80;0.75;;;26.00;45.00;;;;;;4949782;28;20212;-80
2023/05/31 12:22:15;;;;;;;1.10;1.00;;;26.00;44.10;;;;;;4952847;28;20209;-80
2023/05/31 12:24:51;;;;;;;1.05;0.73;;;25.90;44.40;;;;;;4949416;28;20205;-81
2023/05/31 12:27:24;;;;;;;2.08;0.90;;;26.00;43.50;;;;;;4947393;28;20258;-81
2023/05/31 12:29:54;;;;;;;1.33;0.90;;;26.00;43.60;;;;;;4949428;28;20210;-81
2023/05/31 12:32:21;;;;;;;1.05;0.73;;;26.10;43.50;;;;;;4940767;28;20295;-82
2023/05/31 12:34:47;;;;;;;1.20;1.10;;;26.30;43.20;;;;;;4952271;28;22304;-81
2023/05/31 12:37:13;;;;;;;1.58;1.00;;;26.60;43.40;;;;;;4950158;28;20259;-81
2023/05/31 12:39:41;;;;;;;0.55;0.55;;;26.70;42.00;;;;;;4952810;28;20197;-82
2023/05/31 12:42:07;;;;;;;0.88;0.88;;;26.40;42.90;;;;;;4933444;28;20315;-81
2023/05/31 12:44:34;;;;;;;3.28;1.23;;;26.90;42.20;;;;;;4952776;28;20202;-81
2023/05/31 12:47:02;;;;;;;1.00;0.90;;;27.10;40.80;;;;;;4949768;28;20220;-81